Weather History for Sheldon, IA

Change the Weather History Date:

Thursday, February 14, 2013

  Actual Average Record
Temperature  
Mean Temperature 24 °F -  
Max Temperature 35 °F 29 °F 65 °F (1954)
Min Temperature 14 °F 10 °F -16 °F (2007)
Degree Days  
Heating Degree Days 40    
Moisture  
Dew Point 23 °F    
Average Humidity 83    
Maximum Humidity 100    
Minimum Humidity 58    
Precipitation  
Precipitation 0.00 in - - ()
Sea Level Pressure  
Sea Level Pressure 29.96 in    
Wind  
Wind Speed 17 mph (NW)    
Max Wind Speed 25 mph    
Max Gust Speed 33 mph    
Visibility 10 miles    
Events Rain , Snow    
Averages and records for this station are not official NWS values.
T = Trace of Precipitation, MM = Missing Value Source: NWS Daily Summary

Daily Weather History Graph

Daily Weather History Graph

Search for Another Location

Airport:

Trip Planner

Search our weather history database for the weather conditions in past years. The results will help you decide how hot, cold, wet, or windy it might be!

Date:

Astronomy

Feb. 14, 2013 Rise Set
Actual Time 7:22 AM CST 5:53 PM CST
Civil Twilight 6:52 AM CST 6:22 PM CST
Nautical Twilight 6:19 AM CST 6:56 PM CST
Astronomical Twilight 5:46 AM CST 7:29 PM CST
Moon 9:15 AM CST (2/14) 11:07 PM CST (2/14)
Length of Visible Light 11h 29m
Length of Day
10h 31m
Waxing Crescent, 22% of the Moon is Illuminated
Feb 14
Waxing Crescent
Feb 17
First Quarter
Feb 25
Full
Mar 4
Last Quarter
Mar 11
New

Hourly Weather History & Observations

Time (CST) Temp. Windchill Dew Point Humidity Pressure Visibility Wind Dir Wind Speed Gust Speed Precip Events Conditions
12:15 AM 35.6 °F 25.5 °F 32.0 °F 87% 29.69 in 10.0 mi WNW 17.3 mph - N/A   Overcast
12:35 AM 33.8 °F 23.5 °F 32.0 °F 93% 29.70 in 10.0 mi WNW 16.1 mph 21.9 mph N/A   Mostly Cloudy
12:55 AM 33.8 °F 23.5 °F 33.8 °F 100% 29.71 in 10.0 mi WNW 16.1 mph - N/A   Mostly Cloudy
1:15 AM 33.8 °F 21.6 °F 32.0 °F 93% 29.72 in 10.0 mi NW 23.0 mph 28.8 mph N/A   Overcast
1:35 AM 33.8 °F 23.2 °F 32.0 °F 93% 29.73 in 10.0 mi NW 17.3 mph 24.2 mph N/A   Overcast
1:55 AM 33.8 °F 22.2 °F 30.2 °F 87% 29.74 in 10.0 mi NW 20.7 mph 27.6 mph N/A   Overcast
2:15 AM 32.0 °F 20.1 °F 32.0 °F 100% 29.75 in 10.0 mi NNW 19.6 mph 27.6 mph N/A   Overcast
2:35 AM 32.0 °F 20.1 °F 30.2 °F 93% 29.76 in 10.0 mi NW 19.6 mph 28.8 mph N/A   Overcast
2:55 AM 32.0 °F 20.5 °F 30.2 °F 93% 29.77 in 10.0 mi NW 18.4 mph 25.3 mph N/A   Overcast
3:15 AM 32.0 °F 20.1 °F 30.2 °F 93% 29.78 in 10.0 mi NW 19.6 mph 27.6 mph N/A   Overcast
3:35 AM 32.0 °F 20.1 °F 30.2 °F 93% 29.78 in 10.0 mi NW 19.6 mph - N/A   Overcast
3:55 AM 32.0 °F 20.8 °F 30.2 °F 93% 29.79 in 10.0 mi NW 17.3 mph 23.0 mph N/A   Overcast
4:15 AM 32.0 °F 21.2 °F 30.2 °F 93% 29.80 in 10.0 mi WNW 16.1 mph 23.0 mph N/A   Overcast
4:35 AM 32.0 °F 22.1 °F 30.2 °F 93% 29.81 in 10.0 mi WNW 13.8 mph - N/A   Overcast
4:55 AM 30.2 °F 20.2 °F 30.2 °F 100% 29.81 in 10.0 mi NW 12.7 mph - N/A   Overcast
5:15 AM 30.2 °F 20.2 °F 30.2 °F 100% 29.82 in 10.0 mi WNW 12.7 mph - N/A   Scattered Clouds
5:35 AM 30.2 °F 19.3 °F 30.2 °F 100% 29.83 in 10.0 mi NW 15.0 mph - N/A   Clear
5:55 AM 28.4 °F 17.0 °F 28.4 °F 100% 29.84 in 10.0 mi WNW 15.0 mph - N/A   Partly Cloudy
6:15 AM 30.2 °F 20.2 °F 30.2 °F 100% 29.84 in 10.0 mi NW 12.7 mph - N/A   Mostly Cloudy
6:35 AM 30.2 °F 20.2 °F 30.2 °F 100% 29.85 in 10.0 mi NW 12.7 mph - N/A   Overcast
6:55 AM 28.4 °F 17.5 °F 28.4 °F 100% 29.84 in 10.0 mi NNW 13.8 mph - N/A   Overcast
7:15 AM 28.4 °F 19.7 °F 28.4 °F 100% 29.84 in 9.0 mi NW 9.2 mph - N/A   Overcast
7:35 AM 28.4 °F 19.1 °F 28.4 °F 100% 29.86 in 9.0 mi WNW 10.4 mph - N/A   Mostly Cloudy
7:55 AM 28.4 °F 19.1 °F 28.4 °F 100% 29.86 in 9.0 mi WNW 10.4 mph - N/A   Overcast
8:15 AM 30.2 °F 22.6 °F 30.2 °F 100% 29.86 in 9.0 mi NW 8.1 mph - N/A   Overcast
8:35 AM 30.2 °F 22.6 °F 30.2 °F 100% 29.87 in 7.0 mi WNW 8.1 mph - N/A Snow Light Snow
8:55 AM 30.2 °F 21.3 °F 30.2 °F 100% 29.87 in 9.0 mi West 10.4 mph - N/A   Overcast
9:15 AM 30.2 °F 21.3 °F 30.2 °F 100% 29.88 in 9.0 mi West 10.4 mph - N/A   Overcast
9:35 AM 32.0 °F 23.6 °F 32.0 °F 100% 29.88 in 9.0 mi West 10.4 mph - N/A   Overcast
9:55 AM 33.8 °F 23.9 °F 32.0 °F 93% 29.87 in 9.0 mi West 15.0 mph - N/A   Mostly Cloudy
10:15 AM 33.8 °F 22.2 °F 30.2 °F 87% 29.87 in 10.0 mi WNW 20.7 mph 29.9 mph N/A   Partly Cloudy
10:35 AM 35.6 °F 24.2 °F 30.2 °F 81% 29.88 in 10.0 mi WNW 21.9 mph 28.8 mph N/A   Scattered Clouds
10:55 AM 33.8 °F 21.0 °F 28.4 °F 81% 29.89 in 10.0 mi NW 25.3 mph 32.2 mph N/A   Overcast
11:15 AM 33.8 °F 21.3 °F 28.4 °F 81% 29.89 in 10.0 mi WNW 24.2 mph 31.1 mph N/A   Overcast
11:35 AM 33.8 °F 21.9 °F 28.4 °F 81% 29.89 in 10.0 mi WNW 21.9 mph 28.8 mph N/A   Overcast
11:55 AM 33.8 °F 21.0 °F 28.4 °F 81% 29.91 in 10.0 mi WNW 25.3 mph 32.2 mph N/A   Overcast
12:15 PM 33.8 °F 22.5 °F 30.2 °F 87% 29.91 in 9.0 mi NW 19.6 mph 26.5 mph N/A Rain Light Rain
12:35 PM 33.8 °F 21.6 °F 30.2 °F 87% 29.91 in 9.0 mi NW 23.0 mph 33.4 mph N/A Rain Light Rain
12:55 PM 32.0 °F 20.5 °F 30.2 °F 93% 29.92 in 10.0 mi NNW 18.4 mph 28.8 mph N/A   Light Drizzle
1:15 PM 32.0 °F 21.2 °F 28.4 °F 87% 29.93 in 10.0 mi North 16.1 mph - N/A   Light Drizzle
1:35 PM 30.2 °F 18.5 °F 28.4 °F 93% 29.95 in 10.0 mi North 17.3 mph - N/A Rain Light Freezing Rain
1:55 PM 32.0 °F 22.1 °F 28.4 °F 87% 29.95 in 10.0 mi North 13.8 mph - N/A   Light Drizzle
2:15 PM 32.0 °F 21.6 °F 28.4 °F 87% 29.96 in 10.0 mi North 15.0 mph 20.7 mph N/A   Overcast
2:35 PM 30.2 °F 18.1 °F 26.6 °F 86% 29.97 in 10.0 mi North 18.4 mph - N/A   Overcast
2:55 PM 32.0 °F 20.5 °F 26.6 °F 80% 29.98 in 10.0 mi North 18.4 mph - N/A   Overcast
3:15 PM 30.2 °F 18.9 °F 24.8 °F 80% 30.00 in 10.0 mi NNW 16.1 mph - N/A   Overcast
3:35 PM 32.0 °F 20.1 °F 24.8 °F 75% 30.02 in 10.0 mi NNW 19.6 mph 25.3 mph N/A   Overcast
3:55 PM 30.2 °F 17.8 °F 23.0 °F 75% 30.03 in 10.0 mi NNW 19.6 mph - N/A   Overcast
4:15 PM 30.2 °F 18.5 °F 23.0 °F 75% 30.05 in 10.0 mi NNW 17.3 mph - N/A   Overcast
4:35 PM 28.4 °F 16.2 °F 23.0 °F 80% 30.06 in 10.0 mi North 17.3 mph - N/A   Overcast
4:55 PM 28.4 °F 15.4 °F 17.6 °F 64% 30.07 in 10.0 mi North 19.6 mph - N/A   Overcast
5:15 PM 26.6 °F 12.7 °F 15.8 °F 64% 30.08 in 10.0 mi North 20.7 mph 26.5 mph N/A   Overcast
5:35 PM 26.6 °F 13.4 °F 14.0 °F 59% 30.10 in 10.0 mi North 18.4 mph 26.5 mph N/A   Overcast
5:55 PM 26.6 °F 13.1 °F 17.6 °F 69% 30.11 in 10.0 mi NNW 19.6 mph - N/A   Overcast
6:15 PM 24.8 °F 10.3 °F 15.8 °F 69% 30.13 in 10.0 mi NNW 20.7 mph 26.5 mph N/A   Overcast
6:35 PM 23.0 °F 8.0 °F 14.0 °F 68% 30.14 in 10.0 mi NNW 20.7 mph - N/A   Overcast
6:55 PM 23.0 °F 8.7 °F 14.0 °F 68% 30.15 in 10.0 mi NNW 18.4 mph 28.8 mph N/A   Overcast
7:15 PM 21.2 °F 5.6 °F 12.2 °F 68% 30.16 in 10.0 mi NNW 20.7 mph - N/A   Overcast
7:35 PM 21.2 °F 5.2 °F 12.2 °F 68% 30.17 in 10.0 mi NNW 21.9 mph - N/A   Overcast
7:55 PM 21.2 °F 5.6 °F 8.6 °F 58% 30.18 in 10.0 mi NNW 20.7 mph 27.6 mph N/A   Overcast
8:15 PM 21.2 °F 5.6 °F 8.6 °F 58% 30.18 in 10.0 mi NNW 20.7 mph - N/A   Overcast
8:35 PM 19.4 °F 3.2 °F 6.8 °F 58% 30.19 in 10.0 mi NNW 20.7 mph - N/A   Overcast
8:55 PM 19.4 °F 5.0 °F 6.8 °F 58% 30.21 in 10.0 mi NNW 16.1 mph 21.9 mph N/A   Mostly Cloudy
9:15 PM 17.6 °F 3.2 °F 5.0 °F 58% 30.21 in 10.0 mi NNW 15.0 mph 21.9 mph N/A   Scattered Clouds
9:35 PM 17.6 °F 3.7 °F 6.8 °F 63% 30.22 in 10.0 mi NNW 13.8 mph - N/A   Clear
9:55 PM 17.6 °F 2.2 °F 5.0 °F 58% 30.22 in 10.0 mi NNW 17.3 mph - N/A   Clear
10:15 PM 15.8 °F 0.9 °F 5.0 °F 62% 30.23 in 10.0 mi NNW 15.0 mph - N/A   Clear
10:35 PM 15.8 °F 2.1 °F 3.2 °F 58% 30.23 in 10.0 mi NNW 12.7 mph 19.6 mph N/A   Clear
10:55 PM 15.8 °F 2.1 °F 5.0 °F 62% 30.23 in 10.0 mi NNW 12.7 mph - N/A   Clear
11:15 PM 15.8 °F 1.4 °F 5.0 °F 62% 30.24 in 10.0 mi NNW 13.8 mph - N/A   Clear
11:35 PM 14.0 °F 2.0 °F 6.8 °F 73% 30.23 in 10.0 mi NW 9.2 mph - N/A   Clear
11:55 PM 14.0 °F 2.0 °F 8.6 °F 79% 30.24 in 10.0 mi WNW 9.2 mph - N/A   Clear